TimeCST,TemperatureF,Dew PointF,Humidity,Sea Level PressureIn,VisibilityMPH,Wind Direction,Wind SpeedMPH,Gust SpeedMPH,PrecipitationIn,Events,Conditions,WindDirDegrees,DateUTC
12:55 AM,25.0,21.2,86,30.25,10.0,Calm,Calm,-,N/A,,Clear,0,2012-12-12 06:55:00
1:55 AM,23.7,21.4,91,30.26,10.0,Calm,Calm,-,N/A,,Clear,0,2012-12-12 07:55:00
2:55 AM,23.9,21.6,91,30.27,10.0,Calm,Calm,-,N/A,,Clear,0,2012-12-12 08:55:00
3:55 AM,21.7,21.4,99,30.27,10.0,Calm,Calm,-,N/A,,Clear,0,2012-12-12 09:55:00
4:55 AM,21.2,20.7,98,30.29,10.0,Calm,Calm,-,N/A,,Clear,0,2012-12-12 10:55:00
5:55 AM,21.2,20.8,99,30.31,10.0,Calm,Calm,-,N/A,,Clear,0,2012-12-12 11:55:00
6:55 AM,21.2,20.8,99,30.32,10.0,Calm,Calm,-,N/A,,Clear,0,2012-12-12 12:55:00
7:55 AM,21.9,21.4,98,30.34,10.0,Calm,Calm,-,N/A,,Clear,0,2012-12-12 13:55:00
8:55 AM,28.4,26.8,94,30.36,10.0,SSE,3.5,-,N/A,,Clear,160,2012-12-12 14:55:00
9:55 AM,34.7,27.5,75,30.38,10.0,South,3.5,-,N/A,,Clear,180,2012-12-12 15:55:00
10:55 AM,39.6,25.7,58,30.37,10.0,South,4.6,-,N/A,,Clear,170,2012-12-12 16:55:00
11:55 AM,44.4,28.4,53,30.34,10.0,South,4.6,-,N/A,,Clear,180,2012-12-12 17:55:00
12:55 PM,47.1,26.1,44,30.32,10.0,South,5.8,-,N/A,,Clear,170,2012-12-12 18:55:00
1:55 PM,48.7,24.1,38,30.30,10.0,South,8.1,-,N/A,,Clear,190,2012-12-12 19:55:00
2:55 PM,49.3,23.2,36,30.30,10.0,South,6.9,-,N/A,,Clear,170,2012-12-12 20:55:00
3:55 PM,47.5,24.1,40,30.29,10.0,SE,6.9,-,N/A,,Clear,140,2012-12-12 21:55:00
4:55 PM,42.6,23.7,47,30.30,10.0,SE,6.9,-,N/A,,Clear,140,2012-12-12 22:55:00
5:55 PM,38.8,24.3,56,30.32,10.0,SSE,4.6,-,N/A,,Clear,160,2012-12-12 23:55:00
6:55 PM,36.1,24.8,63,30.32,10.0,SSE,5.8,-,N/A,,Clear,160,2012-12-13 00:55:00
7:55 PM,35.6,24.4,64,30.33,10.0,South,6.9,-,N/A,,Clear,180,2012-12-13 01:55:00
8:55 PM,35.6,24.6,64,30.33,10.0,South,8.1,-,N/A,,Clear,190,2012-12-13 02:55:00
9:55 PM,34.9,26.4,71,30.33,10.0,South,9.2,-,N/A,,Clear,190,2012-12-13 03:55:00
10:55 PM,31.8,27.1,83,30.33,10.0,South,5.8,-,N/A,,Clear,180,2012-12-13 04:55:00
11:55 PM,30.2,25.7,83,30.31,10.0,South,6.9,-,N/A,,Clear,170,2012-12-13 05:55:00